Time;durP1;ratioP1;P1;durP2;ratioP2;P2;SDS_P1;SDS_P2;PMS_P1;PMS_P2;Temp;Humidity;BMP_temperature;BMP_pressure;BME280_temperature;BME280_humidity;BME280_pressure;Samples;Min_cycle;Max_cycle;Signal;HPM_P1;HPM_P2
2022/09/23 00:02:30;;;;;;;2.17;1.33;;;21.60;99.90;;;;;;4938106;29;20209;-92
2022/09/23 00:05:02;;;;;;;2.10;1.70;;;21.30;99.90;;;;;;4939440;29;20623;-94
2022/09/23 00:07:37;;;;;;;5.73;1.40;;;21.60;99.90;;;;;;4941965;29;20260;-93
2022/09/23 00:10:09;;;;;;;4.23;1.20;;;21.50;99.90;;;;;;4940368;29;20212;-93
2022/09/23 00:12:41;;;;;;;2.53;1.50;;;21.20;99.90;;;;;;4938817;29;20216;-93
2022/09/23 00:15:12;;;;;;;3.30;1.60;;;21.10;99.90;;;;;;4938998;29;20296;-92
2022/09/23 00:17:44;;;;;;;3.23;1.40;;;21.20;99.90;;;;;;4940525;29;20216;-91
2022/09/23 00:20:16;;;;;;;3.30;1.40;;;21.20;99.90;;;;;;4941214;29;20675;-93
2022/09/23 00:22:49;;;;;;;2.03;1.50;;;21.00;99.90;;;;;;4940512;28;20215;-92
2022/09/23 00:25:22;;;;;;;2.47;1.40;;;20.80;99.90;;;;;;4939302;29;20223;-93
2022/09/23 00:27:53;;;;;;;2.50;1.60;;;20.50;99.90;;;;;;4940591;29;20620;-93
2022/09/23 00:30:24;;;;;;;3.00;1.60;;;20.40;99.90;;;;;;4939178;29;20223;-92
2022/09/23 00:32:55;;;;;;;2.07;1.40;;;20.40;99.90;;;;;;4941787;29;20216;-93
2022/09/23 00:35:26;;;;;;;2.30;1.50;;;20.20;99.90;;;;;;4957328;29;20254;-92
2022/09/23 00:38:00;;;;;;;2.93;1.60;;;20.20;99.90;;;;;;4957649;28;20196;-92
2022/09/23 00:40:31;;;;;;;3.60;1.73;;;20.20;99.90;;;;;;4956668;29;20269;-92
2022/09/23 00:43:03;;;;;;;3.73;1.50;;;20.10;99.90;;;;;;4945117;29;20206;-92
2022/09/23 00:45:34;;;;;;;2.03;1.43;;;20.00;99.90;;;;;;4941815;29;20231;-92
2022/09/23 00:48:06;;;;;;;3.53;1.60;;;19.90;99.90;;;;;;4941439;29;20276;-91
2022/09/23 00:50:40;;;;;;;2.10;1.50;;;19.80;99.90;;;;;;4937769;29;20205;-93
2022/09/23 00:53:21;;;;;;;3.30;1.40;;;19.70;99.90;;;;;;4937710;29;20665;-93
2022/09/23 00:55:56;;;;;;;2.83;1.47;;;19.80;99.90;;;;;;4940884;29;20223;-93
2022/09/23 00:58:31;;;;;;;3.30;1.67;;;19.60;99.90;;;;;;4941394;29;20215;-92
2022/09/23 01:01:03;;;;;;;3.03;1.50;;;19.60;99.90;;;;;;4941576;29;20211;-92
2022/09/23 01:03:35;;;;;;;2.13;1.37;;;19.50;99.90;;;;;;4941147;29;20209;-92
2022/09/23 01:06:08;;;;;;;3.27;1.57;;;19.50;99.90;;;;;;4940955;29;20677;-93
2022/09/23 01:08:42;;;;;;;3.20;1.90;;;19.40;99.90;;;;;;4941064;29;20234;-92
2022/09/23 01:11:26;;;;;;;4.13;1.60;;;19.40;99.90;;;;;;4941376;29;20212;-92
2022/09/23 01:14:06;;;;;;;4.40;1.90;;;19.30;99.90;;;;;;4942027;29;20205;-93
2022/09/23 01:16:44;;;;;;;4.13;1.50;;;19.30;99.90;;;;;;4946778;28;20257;-93
2022/09/23 01:19:35;;;;;;;3.00;1.50;;;19.30;99.90;;;;;;4961196;28;20229;-93
2022/09/23 01:22:10;;;;;;;3.63;1.60;;;19.30;99.90;;;;;;4960063;29;20227;-93
2022/09/23 01:25:01;;;;;;;4.53;1.50;;;19.30;99.90;;;;;;4960992;28;20208;-90
2022/09/23 01:27:48;;;;;;;4.17;1.60;;;19.10;99.90;;;;;;4952046;29;20278;-93
2022/09/23 01:30:38;;;;;;;2.50;1.30;;;19.10;99.90;;;;;;4939054;29;20691;-93
2022/09/23 01:33:15;;;;;;;3.33;1.73;;;19.00;99.90;;;;;;4940397;29;20212;-92
2022/09/23 01:36:00;;;;;;;3.60;1.60;;;18.90;99.90;;;;;;4939845;29;20208;-91
2022/09/23 01:38:41;;;;;;;5.77;1.70;;;18.90;99.90;;;;;;4938360;29;20216;-92
2022/09/23 01:41:26;;;;;;;2.53;1.40;;;18.80;99.90;;;;;;4939241;29;20204;-92
2022/09/23 01:44:04;;;;;;;2.90;1.70;;;18.70;99.90;;;;;;4939250;29;20677;-92
2022/09/23 01:46:49;;;;;;;2.93;1.40;;;18.70;99.90;;;;;;4938624;29;20224;-92
2022/09/23 01:49:26;;;;;;;4.20;1.60;;;18.50;99.90;;;;;;4939450;29;20280;-91
2022/09/23 01:52:08;;;;;;;3.23;1.47;;;18.40;99.90;;;;;;4941115;29;20212;-92
2022/09/23 01:54:46;;;;;;;4.10;1.40;;;18.40;99.90;;;;;;4941822;28;20215;-92
2022/09/23 01:57:23;;;;;;;4.17;1.70;;;18.30;99.90;;;;;;4941624;29;20220;-93
2022/09/23 02:00:00;;;;;;;2.63;1.47;;;18.20;99.90;;;;;;4948495;29;20211;-94
2022/09/23 02:02:39;;;;;;;2.57;1.40;;;18.10;99.90;;;;;;4957210;29;20257;-94
2022/09/23 02:05:16;;;;;;;5.20;2.00;;;18.10;99.90;;;;;;4958227;28;20215;-93
2022/09/23 02:07:52;;;;;;;3.27;1.50;;;18.00;99.90;;;;;;4959220;28;20242;-94
2022/09/23 02:10:34;;;;;;;5.50;1.67;;;18.00;99.90;;;;;;4958996;28;20620;-94
2022/09/23 02:13:12;;;;;;;3.97;1.30;;;17.90;99.90;;;;;;4939830;29;20208;-95
2022/09/23 02:15:50;;;;;;;5.67;1.60;;;17.90;99.90;;;;;;4939409;29;20216;-91
2022/09/23 02:18:26;;;;;;;2.97;1.40;;;17.90;99.90;;;;;;4940535;29;20227;-93
2022/09/23 02:21:01;;;;;;;2.03;1.30;;;17.80;99.90;;;;;;4941979;28;20315;-93
2022/09/23 02:23:38;;;;;;;2.90;1.80;;;17.70;99.90;;;;;;4938249;29;20207;-91
2022/09/23 02:26:18;;;;;;;2.50;1.63;;;17.70;99.90;;;;;;4933325;29;20212;-92
2022/09/23 02:28:57;;;;;;;5.63;1.70;;;17.60;99.90;;;;;;4945478;29;20232;-92
2022/09/23 02:31:37;;;;;;;3.57;1.43;;;17.50;99.90;;;;;;4937760;29;20200;-92
2022/09/23 02:34:22;;;;;;;4.57;2.17;;;17.50;99.90;;;;;;4939775;29;20264;-93
2022/09/23 02:37:03;;;;;;;10.33;3.50;;;17.50;99.90;;;;;;4940108;29;20294;-91
2022/09/23 02:39:42;;;;;;;10.23;3.63;;;17.40;99.90;;;;;;4938075;29;20227;-90
2022/09/23 02:42:18;;;;;;;6.27;3.47;;;17.40;99.90;;;;;;4938002;29;20208;-93
2022/09/23 02:44:50;;;;;;;4.43;1.70;;;17.30;99.90;;;;;;4937720;29;20216;-92
2022/09/23 02:47:27;;;;;;;3.23;1.83;;;17.30;99.90;;;;;;4935627;29;20737;-93
2022/09/23 02:50:00;;;;;;;3.17;1.40;;;17.20;99.90;;;;;;4932472;29;20204;-93
2022/09/23 02:52:32;;;;;;;3.63;1.50;;;17.20;99.90;;;;;;4935569;28;20541;-93
2022/09/23 02:55:03;;;;;;;2.83;1.70;;;17.20;99.90;;;;;;4939424;29;20307;-92
2022/09/23 02:57:34;;;;;;;2.33;1.70;;;17.20;99.90;;;;;;4928268;29;20204;-94
2022/09/23 03:00:07;;;;;;;4.40;1.90;;;17.20;99.90;;;;;;4937480;29;20219;-93
2022/09/23 03:03:07;;;;;;;4.17;1.53;;;17.20;99.90;;;;;;4925183;29;20219;-94
2022/09/23 03:05:46;;;;;;;5.23;2.07;;;17.10;99.90;;;;;;4937616;29;20224;-91
2022/09/23 03:08:35;;;;;;;6.00;2.00;;;17.10;99.90;;;;;;4942197;29;20224;-91
2022/09/23 03:11:09;;;;;;;4.30;1.93;;;17.00;99.90;;;;;;4936877;29;20212;-92
2022/09/23 03:13:54;;;;;;;3.60;1.83;;;16.90;99.90;;;;;;4934593;29;20212;-94
2022/09/23 03:16:33;;;;;;;5.90;1.70;;;16.90;99.90;;;;;;4920345;29;20223;-92
2022/09/23 03:19:20;;;;;;;3.63;1.97;;;16.80;99.90;;;;;;4932473;29;20209;-92
2022/09/23 03:22:01;;;;;;;4.90;2.00;;;16.70;99.90;;;;;;4938067;29;20215;-92
2022/09/23 03:24:35;;;;;;;4.23;2.10;;;16.70;99.90;;;;;;4939664;29;20220;-93
2022/09/23 03:27:12;;;;;;;5.60;1.80;;;16.70;99.90;;;;;;4939493;29;20211;-93
2022/09/23 03:29:47;;;;;;;4.37;2.37;;;16.60;99.90;;;;;;4936975;29;20245;-90
2022/09/23 03:32:21;;;;;;;7.07;2.07;;;16.60;99.90;;;;;;4939629;29;20204;-91
2022/09/23 03:34:55;;;;;;;7.80;1.77;;;16.50;99.90;;;;;;4940377;29;20201;-91
2022/09/23 03:37:34;;;;;;;4.40;1.80;;;16.50;99.90;;;;;;4938471;29;20210;-89
2022/09/23 03:40:10;;;;;;;6.20;2.13;;;16.50;99.90;;;;;;4936811;29;20220;-93
2022/09/23 03:42:47;;;;;;;3.90;1.83;;;16.50;99.90;;;;;;4930668;29;20862;-92
2022/09/23 03:45:22;;;;;;;8.50;1.93;;;16.50;99.90;;;;;;4945080;29;20211;-90
2022/09/23 03:47:55;;;;;;;4.33;2.10;;;16.40;99.90;;;;;;4936406;29;20677;-90
2022/09/23 03:50:26;;;;;;;2.97;1.40;;;16.40;99.90;;;;;;4925863;29;20219;-91
2022/09/23 03:53:00;;;;;;;6.70;2.03;;;16.40;99.90;;;;;;4937815;29;20215;-92
2022/09/23 03:55:33;;;;;;;3.03;1.50;;;16.30;99.90;;;;;;4936384;29;20204;-93
2022/09/23 03:58:08;;;;;;;5.30;1.83;;;16.30;99.90;;;;;;4931419;29;20212;-91
2022/09/23 04:00:39;;;;;;;5.13;1.70;;;16.30;99.90;;;;;;4935909;29;20216;-91
2022/09/23 04:03:11;;;;;;;5.23;1.77;;;16.30;99.90;;;;;;4933861;29;20294;-92
2022/09/23 04:05:42;;;;;;;3.63;1.40;;;16.30;99.90;;;;;;4937632;29;20279;-93
2022/09/23 04:08:15;;;;;;;6.43;2.00;;;16.20;99.90;;;;;;4933939;29;20209;-93
2022/09/23 04:10:46;;;;;;;4.10;1.87;;;16.10;99.90;;;;;;4934062;29;20212;-92
2022/09/23 04:13:23;;;;;;;2.47;1.67;;;16.10;99.90;;;;;;4937143;29;20220;-93
2022/09/23 04:15:54;;;;;;;3.23;1.80;;;16.10;99.90;;;;;;4936815;28;20633;-91
2022/09/23 04:18:26;;;;;;;4.73;1.93;;;16.00;99.90;;;;;;4938006;29;20228;-93
2022/09/23 04:20:59;;;;;;;7.03;2.17;;;16.00;99.90;;;;;;4937141;29;20219;-92
2022/09/23 04:23:33;;;;;;;6.80;1.90;;;16.00;99.90;;;;;;4936304;29;20212;-92
2022/09/23 04:26:06;;;;;;;5.27;1.80;;;15.90;99.90;;;;;;4936508;29;20213;-92
2022/09/23 04:28:37;;;;;;;3.50;1.67;;;15.90;99.90;;;;;;4940150;29;20247;-93
2022/09/23 04:31:10;;;;;;;3.87;1.93;;;15.80;99.90;;;;;;4940214;29;20239;-92
2022/09/23 04:33:41;;;;;;;5.70;1.80;;;15.80;99.90;;;;;;4939590;29;20223;-92
2022/09/23 04:36:12;;;;;;;4.10;1.57;;;15.80;99.90;;;;;;4940548;29;20216;-92
2022/09/23 04:38:48;;;;;;;4.20;2.10;;;15.70;99.90;;;;;;4940492;29;20307;-91
2022/09/23 04:41:20;;;;;;;4.17;1.63;;;15.70;99.90;;;;;;4940526;29;20692;-91
2022/09/23 04:43:51;;;;;;;5.93;1.90;;;15.70;99.90;;;;;;4939715;29;20210;-91
2022/09/23 04:46:22;;;;;;;4.27;1.60;;;15.60;99.90;;;;;;4940386;29;20219;-91
2022/09/23 04:48:53;;;;;;;3.63;1.90;;;15.60;99.90;;;;;;4940501;28;20236;-92
2022/09/23 04:51:26;;;;;;;5.73;1.97;;;15.60;99.90;;;;;;4940287;29;20196;-92
2022/09/23 04:53:59;;;;;;;4.67;2.00;;;15.50;99.90;;;;;;4938622;29;20231;-91
2022/09/23 04:56:32;;;;;;;4.73;1.80;;;15.50;99.90;;;;;;4940532;29;20226;-92
2022/09/23 04:59:04;;;;;;;4.67;1.70;;;15.50;99.90;;;;;;4940267;29;20666;-91
2022/09/23 05:01:37;;;;;;;3.23;1.60;;;15.40;99.90;;;;;;4939411;29;20212;-93
2022/09/23 05:04:12;;;;;;;3.50;1.60;;;15.40;99.90;;;;;;4940236;29;20666;-92
2022/09/23 05:06:44;;;;;;;3.90;1.73;;;15.40;99.90;;;;;;4927355;29;20205;-92
2022/09/23 05:09:19;;;;;;;4.87;1.83;;;15.40;99.90;;;;;;4921481;29;20225;-92
2022/09/23 05:11:51;;;;;;;4.13;1.90;;;15.40;99.90;;;;;;4924671;29;20262;-92
2022/09/23 05:14:22;;;;;;;5.70;1.60;;;15.30;99.90;;;;;;4940514;29;20205;-92
2022/09/23 05:16:53;;;;;;;4.60;1.80;;;15.30;99.90;;;;;;4938854;29;20223;-93
2022/09/23 05:19:25;;;;;;;5.00;1.83;;;15.30;99.90;;;;;;4938852;29;20566;-92
2022/09/23 05:21:56;;;;;;;3.97;1.70;;;15.30;99.90;;;;;;4938784;29;20208;-92
2022/09/23 05:24:30;;;;;;;5.43;1.60;;;15.30;99.90;;;;;;4940241;29;20216;-92
2022/09/23 05:27:01;;;;;;;2.63;1.87;;;15.20;99.90;;;;;;4939784;29;20209;-92
2022/09/23 05:29:32;;;;;;;3.77;2.17;;;15.10;99.90;;;;;;4939559;29;20240;-92
2022/09/23 05:32:03;;;;;;;4.83;1.90;;;15.10;99.90;;;;;;4941855;29;20212;-92
2022/09/23 05:34:37;;;;;;;5.17;2.03;;;15.10;99.90;;;;;;4940924;29;20550;-93
2022/09/23 05:37:08;;;;;;;4.00;1.73;;;15.00;99.90;;;;;;4945754;29;20285;-92
2022/09/23 05:39:42;;;;;;;4.20;1.70;;;15.00;99.90;;;;;;4937074;29;20288;-92
2022/09/23 05:42:14;;;;;;;7.63;2.33;;;15.00;99.90;;;;;;4937512;29;20204;-92
2022/09/23 05:44:46;;;;;;;6.33;1.97;;;15.00;99.90;;;;;;4940291;29;20236;-92
2022/09/23 05:47:17;;;;;;;3.67;1.90;;;15.00;99.90;;;;;;4939665;29;20232;-91
2022/09/23 05:49:49;;;;;;;4.40;2.07;;;14.90;99.90;;;;;;4962515;28;20230;-91
2022/09/23 05:52:30;;;;;;;3.90;1.87;;;14.80;99.90;;;;;;4958852;28;20211;-91
2022/09/23 05:55:03;;;;;;;3.30;1.77;;;14.80;99.90;;;;;;4951359;28;20295;-92
2022/09/23 05:57:38;;;;;;;5.50;1.98;;;14.80;99.90;;;;;;4741047;28;10000618;-91
2022/09/23 06:00:11;;;;;;;6.10;2.10;;;14.80;99.90;;;;;;4956084;29;20442;-92
2022/09/23 06:02:42;;;;;;;5.27;1.70;;;14.80;99.90;;;;;;4956977;28;20215;-92
2022/09/23 06:05:13;;;;;;;6.10;2.20;;;14.80;99.90;;;;;;4958462;29;20196;-93
2022/09/23 06:07:45;;;;;;;6.30;1.90;;;14.70;99.90;;;;;;4947039;29;20208;-93
2022/09/23 06:10:20;;;;;;;3.03;1.77;;;14.70;99.90;;;;;;4943543;29;20240;-91
2022/09/23 06:12:51;;;;;;;5.50;1.83;;;14.70;99.90;;;;;;4936278;29;20653;-92
2022/09/23 06:15:22;;;;;;;6.60;2.30;;;14.70;99.90;;;;;;4942508;29;20223;-91
2022/09/23 06:17:54;;;;;;;4.83;1.83;;;14.70;99.90;;;;;;4940513;29;20681;-92
2022/09/23 06:20:25;;;;;;;6.07;1.70;;;14.70;99.90;;;;;;4955222;28;20244;-91
2022/09/23 06:22:57;;;;;;;3.90;1.57;;;14.70;99.90;;;;;;4949064;28;20268;-91
2022/09/23 06:25:30;;;;;;;5.37;2.13;;;14.70;99.90;;;;;;4956756;28;20207;-91
2022/09/23 06:28:00;;;;;;;6.83;2.20;;;14.60;99.90;;;;;;4958406;28;20208;-90
2022/09/23 06:30:33;;;;;;;6.23;2.30;;;14.60;99.90;;;;;;4940061;29;20266;-92
2022/09/23 06:33:05;;;;;;;3.83;1.57;;;14.60;99.90;;;;;;4938453;29;20212;-92
2022/09/23 06:35:36;;;;;;;6.63;2.00;;;14.60;99.90;;;;;;4936494;29;20212;-92
2022/09/23 06:38:08;;;;;;;5.23;1.93;;;14.60;99.90;;;;;;4935950;29;20208;-91
2022/09/23 06:40:41;;;;;;;5.77;2.13;;;14.50;99.90;;;;;;4936864;29;20662;-92
2022/09/23 06:43:13;;;;;;;5.20;1.97;;;14.50;99.90;;;;;;4924115;29;20731;-92
2022/09/23 06:45:44;;;;;;;4.17;1.90;;;14.50;99.90;;;;;;4939610;28;20308;-93
2022/09/23 06:48:15;;;;;;;2.70;1.80;;;14.40;99.90;;;;;;4939129;29;20216;-91
2022/09/23 06:50:48;;;;;;;7.10;2.00;;;14.50;99.90;;;;;;4938162;29;20236;-92
2022/09/23 06:53:19;;;;;;;5.00;2.10;;;14.40;99.90;;;;;;4936252;29;20242;-92
2022/09/23 06:56:01;;;;;;;3.47;1.90;;;14.40;99.90;;;;;;4937070;29;20216;-90
2022/09/23 06:58:34;;;;;;;4.07;1.97;;;14.30;99.90;;;;;;4937041;29;20220;-91
2022/09/23 07:01:07;;;;;;;7.90;2.27;;;14.30;99.90;;;;;;4928381;29;20264;-90
2022/09/23 07:03:38;;;;;;;5.00;2.20;;;14.30;99.90;;;;;;4934767;29;20208;-92
2022/09/23 07:06:09;;;;;;;4.50;2.13;;;14.20;99.90;;;;;;4939086;29;20208;-89
2022/09/23 07:08:42;;;;;;;4.60;1.93;;;14.20;99.90;;;;;;4937923;29;20208;-90
2022/09/23 07:11:21;;;;;;;4.17;2.07;;;14.30;99.90;;;;;;4939374;29;20240;-90
2022/09/23 07:13:52;;;;;;;4.87;2.10;;;14.30;99.90;;;;;;4927425;29;20212;-91
2022/09/23 07:16:23;;;;;;;5.80;2.10;;;14.30;99.90;;;;;;4929517;29;20636;-90
2022/09/23 07:18:54;;;;;;;6.30;2.00;;;14.30;99.90;;;;;;4936570;29;20216;-90
2022/09/23 07:21:28;;;;;;;3.60;1.70;;;14.30;99.90;;;;;;4936887;29;20281;-91
2022/09/23 07:23:59;;;;;;;4.30;2.10;;;14.30;99.90;;;;;;4931041;29;20208;-90
2022/09/23 07:26:32;;;;;;;5.70;2.00;;;14.30;99.90;;;;;;4938583;29;20243;-92
2022/09/23 07:29:05;;;;;;;5.93;1.97;;;14.40;99.90;;;;;;4920705;29;20759;-92
2022/09/23 07:31:37;;;;;;;3.73;2.03;;;14.40;99.90;;;;;;4934693;29;20239;-93
2022/09/23 07:34:12;;;;;;;6.77;2.30;;;14.40;99.90;;;;;;4926835;29;20303;-93
2022/09/23 07:36:43;;;;;;;5.83;2.23;;;14.50;99.90;;;;;;4937668;29;20222;-93
2022/09/23 07:39:14;;;;;;;5.37;1.90;;;14.50;99.90;;;;;;4936898;29;20570;-93
2022/09/23 07:41:48;;;;;;;5.67;2.10;;;14.50;99.90;;;;;;4936525;29;20211;-92
2022/09/23 07:44:20;;;;;;;5.67;1.90;;;14.60;99.90;;;;;;4936028;29;20208;-92
2022/09/23 07:46:52;;;;;;;5.57;1.83;;;14.60;99.90;;;;;;4928360;29;20209;-91
2022/09/23 07:49:23;;;;;;;7.37;2.13;;;14.70;99.90;;;;;;4937392;29;20725;-92
2022/09/23 07:51:54;;;;;;;7.13;2.13;;;14.70;99.90;;;;;;4936488;29;20236;-91
2022/09/23 07:54:28;;;;;;;3.07;1.80;;;14.70;99.90;;;;;;4937214;29;20680;-93
2022/09/23 07:57:02;;;;;;;2.90;1.90;;;14.80;99.90;;;;;;4934509;29;20208;-91
2022/09/23 07:59:33;;;;;;;5.07;1.90;;;14.80;99.90;;;;;;4937036;29;20220;-92
2022/09/23 08:02:05;;;;;;;5.97;2.00;;;14.80;99.90;;;;;;4936101;29;20219;-93
2022/09/23 08:04:37;;;;;;;5.20;2.00;;;14.80;99.90;;;;;;4947465;29;20208;-91
2022/09/23 08:07:08;;;;;;;5.83;2.30;;;14.80;99.90;;;;;;4943272;28;20220;-93
2022/09/23 08:09:42;;;;;;;7.07;2.23;;;14.80;99.90;;;;;;4942035;29;20223;-93
2022/09/23 08:12:17;;;;;;;7.23;2.17;;;14.80;99.90;;;;;;4940686;29;20236;-93
2022/09/23 08:14:49;;;;;;;6.20;2.13;;;14.80;99.90;;;;;;4941433;29;20212;-92
2022/09/23 08:17:19;;;;;;;5.73;2.33;;;14.80;99.90;;;;;;4940659;28;20216;-92
2022/09/23 08:19:51;;;;;;;3.87;1.97;;;14.80;99.90;;;;;;4941025;29;20219;-93
2022/09/23 08:22:22;;;;;;;6.13;2.30;;;14.80;99.90;;;;;;4939265;29;20311;-93
2022/09/23 08:24:54;;;;;;;6.00;2.37;;;14.80;99.90;;;;;;4941187;29;20219;-93
2022/09/23 08:27:28;;;;;;;4.67;2.27;;;14.80;99.90;;;;;;4941284;29;20744;-92
2022/09/23 08:29:59;;;;;;;4.30;2.23;;;14.80;99.90;;;;;;4941032;29;20330;-92
2022/09/23 08:32:30;;;;;;;4.07;2.00;;;14.80;99.90;;;;;;4940631;29;20283;-92
2022/09/23 08:35:01;;;;;;;5.03;2.20;;;14.80;99.90;;;;;;4939536;29;20236;-93
2022/09/23 08:37:32;;;;;;;6.43;2.40;;;14.80;99.90;;;;;;4940743;28;20208;-93
2022/09/23 08:40:04;;;;;;;3.17;1.93;;;14.80;99.90;;;;;;4939239;29;20219;-93
2022/09/23 08:42:41;;;;;;;5.53;2.37;;;14.80;99.90;;;;;;4940136;28;20231;-93
2022/09/23 08:45:20;;;;;;;6.20;2.63;;;14.80;99.90;;;;;;4940922;28;20215;-94
2022/09/23 08:47:57;;;;;;;6.40;2.17;;;14.80;99.90;;;;;;4940351;29;20220;-92
2022/09/23 08:50:35;;;;;;;5.60;2.37;;;14.80;99.90;;;;;;4940964;28;20215;-93
2022/09/23 08:53:13;;;;;;;4.87;2.33;;;14.80;99.90;;;;;;4929937;29;20223;-92
2022/09/23 08:55:49;;;;;;;3.77;2.00;;;14.80;99.90;;;;;;4924377;29;20217;-93
2022/09/23 08:58:42;;;;;;;6.70;2.60;;;14.80;99.90;;;;;;4924219;29;20211;-91
2022/09/23 09:01:21;;;;;;;13.83;2.10;;;14.80;99.90;;;;;;4923083;29;20390;-94
2022/09/23 09:03:55;;;;;;;6.67;2.40;;;14.80;99.90;;;;;;4922092;29;20205;-93
2022/09/23 09:06:31;;;;;;;4.50;2.27;;;14.70;99.90;;;;;;4923711;29;20212;-93
2022/09/23 09:09:26;;;;;;;5.37;2.47;;;14.70;99.90;;;;;;4921809;29;20346;-92
2022/09/23 09:12:03;;;;;;;5.57;2.20;;;14.70;99.90;;;;;;4922090;29;20979;-94
2022/09/23 09:14:50;;;;;;;5.13;2.20;;;14.60;99.90;;;;;;4933761;29;20219;-93
2022/09/23 09:17:31;;;;;;;4.80;2.03;;;14.60;99.90;;;;;;4943701;29;20227;-93
2022/09/23 09:20:14;;;;;;;5.83;2.23;;;14.50;99.90;;;;;;4942198;29;20217;-91
2022/09/23 09:22:54;;;;;;;5.23;2.40;;;14.40;99.90;;;;;;4943174;29;20212;-92
2022/09/23 09:25:34;;;;;;;4.57;2.13;;;14.40;99.90;;;;;;4943241;29;20222;-92
2022/09/23 09:28:12;;;;;;;7.23;2.73;;;14.30;99.90;;;;;;4953072;29;20212;-93
2022/09/23 09:30:46;;;;;;;5.73;2.27;;;14.30;99.90;;;;;;4949879;29;20220;-93
2022/09/23 09:33:26;;;;;;;5.63;2.67;;;14.30;99.90;;;;;;4949216;29;20211;-94
2022/09/23 09:36:20;;;;;;;4.53;2.20;;;14.20;99.90;;;;;;4940583;29;20216;-93
2022/09/23 09:38:52;;;;;;;4.50;2.30;;;14.20;99.90;;;;;;4939955;29;20204;-93
2022/09/23 09:41:24;;;;;;;4.93;1.90;;;14.10;99.90;;;;;;4939509;29;20687;-94
2022/09/23 09:43:58;;;;;;;5.57;2.40;;;14.10;99.90;;;;;;4938864;29;20216;-94
2022/09/23 09:46:47;;;;;;;5.83;2.30;;;14.10;99.90;;;;;;4939690;29;20212;-93
2022/09/23 09:49:30;;;;;;;5.17;2.73;;;14.10;99.90;;;;;;4933601;29;20230;-93
2022/09/23 09:52:28;;;;;;;6.20;2.43;;;14.10;99.90;;;;;;4919592;29;20264;-95
2022/09/23 09:55:27;;;;;;;5.53;2.00;;;14.10;99.90;;;;;;4932351;29;20672;-92
2022/09/23 09:58:03;;;;;;;3.53;2.00;;;14.10;99.90;;;;;;4939974;29;20208;-93
2022/09/23 10:00:42;;;;;;;7.00;2.20;;;14.00;99.90;;;;;;4939529;29;20287;-93
2022/09/23 10:03:43;;;;;;;7.93;2.20;;;14.00;99.90;;;;;;4938919;29;20573;-94
2022/09/23 10:06:22;;;;;;;6.93;2.40;;;14.00;99.90;;;;;;4938032;29;20219;-93
2022/09/23 10:09:12;;;;;;;5.77;1.93;;;14.00;99.90;;;;;;4939159;29;20568;-92
2022/09/23 10:11:45;;;;;;;5.20;2.27;;;14.00;99.90;;;;;;4938255;29;20239;-93
2022/09/23 10:14:18;;;;;;;4.77;2.37;;;13.90;99.90;;;;;;4940616;29;20208;-92
2022/09/23 10:17:05;;;;;;;4.07;2.43;;;13.90;99.90;;;;;;4938690;29;20220;-93
2022/09/23 10:19:44;;;;;;;6.87;2.17;;;13.90;99.90;;;;;;4939218;28;20319;-93
2022/09/23 10:22:22;;;;;;;7.20;2.30;;;13.90;99.90;;;;;;4938162;29;20208;-93
2022/09/23 10:24:55;;;;;;;6.47;2.40;;;13.90;99.90;;;;;;4938918;29;20219;-92
2022/09/23 10:27:32;;;;;;;7.27;2.37;;;13.90;99.90;;;;;;4939849;29;20218;-93
2022/09/23 10:30:05;;;;;;;5.17;2.10;;;13.90;99.90;;;;;;4956588;29;20218;-92
2022/09/23 10:32:39;;;;;;;8.27;2.60;;;13.90;99.90;;;;;;4953125;28;20226;-94
2022/09/23 10:35:21;;;;;;;5.80;2.10;;;13.90;99.90;;;;;;4959797;28;20192;-93
2022/09/23 10:37:53;;;;;;;4.93;2.30;;;13.90;99.90;;;;;;4959238;28;20319;-94
2022/09/23 10:46:40;;;;;;;4.33;2.27;;;13.80;99.90;;;;;;4958153;28;20208;-95
2022/09/23 10:49:51;;;;;;;2.80;1.77;;;13.80;99.90;;;;;;4958582;29;20211;-93
2022/09/23 10:52:40;;;;;;;4.97;2.53;;;13.80;99.90;;;;;;4957261;29;20231;-93
2022/09/23 10:55:27;;;;;;;6.60;2.53;;;13.80;99.90;;;;;;4954098;28;20284;-94
2022/09/23 10:58:21;;;;;;;4.90;2.23;;;13.80;99.90;;;;;;4943152;29;20287;-93
2022/09/23 11:01:04;;;;;;;5.70;2.30;;;13.80;99.90;;;;;;4940366;29;20215;-93
2022/09/23 11:04:28;;;;;;;5.37;2.13;;;13.80;99.90;;;;;;4939282;29;20216;-94
2022/09/23 11:07:14;;;;;;;5.53;2.37;;;13.80;99.90;;;;;;4880458;29;20293;-92
2022/09/23 11:10:08;;;;;;;5.60;2.50;;;13.80;99.90;;;;;;4880728;29;20225;-93
2022/09/23 11:13:07;;;;;;;5.03;2.33;;;13.80;99.90;;;;;;4932919;29;20705;-93
2022/09/23 11:15:51;;;;;;;4.57;2.60;;;13.80;99.90;;;;;;4939084;28;20215;-92
2022/09/23 11:18:51;;;;;;;5.17;2.17;;;13.70;99.90;;;;;;4942769;29;20231;-92
2022/09/23 11:21:58;;;;;;;4.23;2.47;;;13.70;99.90;;;;;;4946863;29;20307;-92
2022/09/23 11:24:56;;;;;;;7.93;2.53;;;13.70;99.90;;;;;;4940096;28;20653;-94
2022/09/23 11:27:41;;;;;;;3.83;2.37;;;13.70;99.90;;;;;;4958545;28;20188;-94
2022/09/23 11:30:15;;;;;;;6.37;2.87;;;13.70;99.90;;;;;;4957712;28;20215;-92
2022/09/23 11:33:02;;;;;;;5.40;2.27;;;13.70;99.90;;;;;;4952077;29;20232;-93
2022/09/23 11:35:40;;;;;;;6.77;2.30;;;13.70;99.90;;;;;;4941465;29;20679;-92
2022/09/23 11:38:17;;;;;;;4.50;2.43;;;13.80;99.90;;;;;;4942513;29;20216;-92
2022/09/23 11:40:53;;;;;;;6.50;2.37;;;13.80;99.90;;;;;;4942165;29;20669;-93
2022/09/23 11:43:27;;;;;;;6.40;2.47;;;13.80;99.90;;;;;;4939811;29;20219;-96
2022/09/23 11:46:02;;;;;;;7.37;2.60;;;13.90;99.90;;;;;;4953556;28;20196;-93
2022/09/23 11:48:40;;;;;;;6.17;2.30;;;13.90;99.90;;;;;;4958646;28;20241;-92
2022/09/23 11:51:15;;;;;;;2.53;2.23;;;13.90;99.90;;;;;;4956704;28;20211;-93
2022/09/23 11:54:00;;;;;;;8.33;2.77;;;13.90;99.90;;;;;;4958095;28;20224;-94
2022/09/23 11:56:38;;;;;;;4.63;2.30;;;13.90;99.90;;;;;;4952135;29;20299;-93
2022/09/23 11:59:25;;;;;;;5.20;1.97;;;13.90;99.90;;;;;;4938586;29;20215;-93
2022/09/23 12:02:19;;;;;;;5.47;2.30;;;13.90;99.90;;;;;;4937615;29;20662;-94
2022/09/23 12:05:02;;;;;;;4.90;2.33;;;13.80;99.90;;;;;;4938236;29;20295;-92
2022/09/23 12:07:44;;;;;;;6.43;2.70;;;13.70;99.90;;;;;;4938284;29;20591;-93
2022/09/23 12:10:16;;;;;;;4.37;2.10;;;13.70;99.90;;;;;;4938093;29;20227;-92
2022/09/23 12:12:58;;;;;;;4.10;2.13;;;13.70;99.90;;;;;;4937409;29;20243;-92
2022/09/23 12:15:43;;;;;;;2.73;1.80;;;13.60;99.90;;;;;;4937671;29;20216;-93
2022/09/23 12:18:44;;;;;;;5.13;2.27;;;13.60;99.90;;;;;;4938427;29;20271;-93
2022/09/23 12:21:30;;;;;;;6.30;2.17;;;13.60;99.90;;;;;;4937130;29;20220;-92
2022/09/23 12:24:55;;;;;;;6.50;2.00;;;13.60;99.90;;;;;;4937222;29;20208;-94
2022/09/23 12:27:33;;;;;;;4.83;2.00;;;13.60;99.90;;;;;;4937286;29;20254;-93
2022/09/23 12:30:13;;;;;;;4.00;2.30;;;13.60;99.90;;;;;;4937455;29;20216;-92
2022/09/23 12:32:44;;;;;;;6.97;2.50;;;13.60;99.90;;;;;;4935688;29;20319;-92
2022/09/23 12:35:27;;;;;;;3.00;2.20;;;13.70;99.90;;;;;;4937361;29;20228;-91
2022/09/23 12:38:00;;;;;;;3.80;2.20;;;13.70;99.90;;;;;;4937123;29;20212;-93
2022/09/23 12:40:39;;;;;;;3.60;1.90;;;13.70;99.90;;;;;;4936232;29;20205;-93
2022/09/23 12:43:18;;;;;;;6.83;2.53;;;13.70;99.90;;;;;;4938681;29;20212;-92
2022/09/23 12:45:52;;;;;;;6.73;2.23;;;13.70;99.90;;;;;;4937324;29;20215;-91
2022/09/23 12:48:44;;;;;;;5.60;2.53;;;13.80;99.90;;;;;;4939738;29;20308;-92
2022/09/23 12:51:20;;;;;;;5.40;2.30;;;13.80;99.90;;;;;;4943297;28;20582;-93
2022/09/23 12:54:25;;;;;;;3.03;1.93;;;13.70;99.90;;;;;;4941099;29;20271;-92
2022/09/23 12:57:04;;;;;;;5.23;2.17;;;13.80;99.90;;;;;;4949029;29;20263;-93
2022/09/23 12:59:56;;;;;;;6.33;2.00;;;13.90;99.90;;;;;;4945503;29;20208;-91
2022/09/23 13:02:36;;;;;;;4.80;2.23;;;14.00;99.90;;;;;;4939619;29;20277;-92
2022/09/23 13:08:14;;;;;;;5.83;2.30;;;14.10;99.90;;;;;;4938770;29;20576;-93
2022/09/23 13:10:49;;;;;;;3.40;2.27;;;14.20;99.90;;;;;;4940880;29;20584;-95
2022/09/23 13:13:26;;;;;;;4.77;2.20;;;14.20;99.90;;;;;;4941251;29;20254;-91
2022/09/23 13:16:10;;;;;;;6.27;2.43;;;14.30;99.90;;;;;;4940380;29;20215;-93
2022/09/23 13:18:58;;;;;;;7.90;2.27;;;14.30;99.90;;;;;;4939062;29;20224;-93
2022/09/23 13:22:07;;;;;;;5.53;2.43;;;14.30;99.90;;;;;;4940086;29;20244;-92
2022/09/23 13:24:45;;;;;;;8.70;2.93;;;14.30;99.90;;;;;;4940062;29;20216;-92
2022/09/23 13:27:22;;;;;;;3.57;2.10;;;14.40;99.90;;;;;;4923647;29;20218;-93
2022/09/23 13:30:00;;;;;;;4.87;2.60;;;14.40;99.90;;;;;;4940166;28;20220;-93
2022/09/23 13:32:33;;;;;;;4.90;2.47;;;14.40;99.90;;;;;;4938731;29;20581;-93
2022/09/23 13:35:19;;;;;;;4.13;1.90;;;14.50;99.90;;;;;;4939947;29;20719;-92
2022/09/23 13:37:50;;;;;;;3.57;1.97;;;14.50;99.90;;;;;;4939899;29;20673;-93
2022/09/23 13:40:25;;;;;;;4.43;2.37;;;14.50;99.90;;;;;;4942592;29;20212;-94
2022/09/23 13:43:01;;;;;;;5.20;1.80;;;14.50;99.90;;;;;;4938872;29;20208;-93
2022/09/23 13:45:37;;;;;;;3.80;2.00;;;14.50;99.90;;;;;;4938987;29;20586;-93
2022/09/23 13:48:13;;;;;;;5.23;2.07;;;14.60;99.90;;;;;;4939747;29;20630;-93